createdAt,value
2023-11-29T00:00:04.657Z,92.60
2023-11-29T00:02:31.405Z,92.60
2023-11-29T00:04:59.090Z,92.60
2023-11-29T00:07:25.920Z,92.60
2023-11-29T00:09:52.706Z,92.60
2023-11-29T00:12:19.348Z,92.60
2023-11-29T00:14:46.088Z,92.60
2023-11-29T00:17:13.098Z,92.50
2023-11-29T00:19:44.222Z,92.50
2023-11-29T00:22:14.687Z,92.60
2023-11-29T00:24:47.592Z,92.60
2023-11-29T00:27:18.452Z,92.60
2023-11-29T00:29:45.743Z,92.60
2023-11-29T00:32:12.781Z,92.60
2023-11-29T00:34:39.527Z,92.60
2023-11-29T00:37:06.192Z,92.60
2023-11-29T00:39:32.994Z,92.50
2023-11-29T00:42:01.273Z,92.60
2023-11-29T00:44:28.062Z,92.60
2023-11-29T00:46:54.824Z,92.60
2023-11-29T00:49:21.591Z,92.60
2023-11-29T00:51:48.343Z,92.60
2023-11-29T00:54:15.549Z,92.60
2023-11-29T00:56:42.287Z,92.60
2023-11-29T00:59:09.039Z,92.60
2023-11-29T01:01:35.900Z,92.60
2023-11-29T01:04:04.081Z,92.50
2023-11-29T01:06:31.806Z,92.60
2023-11-29T01:08:58.685Z,92.50
2023-11-29T01:11:25.759Z,92.50
2023-11-29T01:13:52.824Z,92.50
2023-11-29T01:16:19.562Z,92.50
2023-11-29T01:18:46.316Z,92.50
2023-11-29T01:21:17.214Z,92.50
2023-11-29T01:23:48.977Z,92.50
2023-11-29T01:26:15.704Z,92.50
2023-11-29T01:28:42.372Z,92.50
2023-11-29T01:31:09.947Z,92.40
2023-11-29T01:33:36.700Z,92.50
2023-11-29T01:36:10.578Z,92.40
2023-11-29T01:38:37.903Z,92.40
2023-11-29T01:41:05.308Z,92.50
2023-11-29T01:43:32.217Z,92.50
2023-11-29T01:45:59.602Z,92.50
2023-11-29T01:48:26.934Z,92.50
2023-11-29T01:50:54.276Z,92.50
2023-11-29T01:53:24.128Z,92.50
2023-11-29T01:55:53.881Z,92.50
2023-11-29T01:58:25.201Z,92.50
2023-11-29T02:00:53.162Z,92.50
2023-11-29T02:03:21.397Z,92.40
2023-11-29T02:05:48.818Z,92.40
2023-11-29T02:08:15.887Z,92.40
2023-11-29T02:10:42.691Z,92.40
2023-11-29T02:13:09.500Z,92.40
2023-11-29T02:15:36.283Z,92.40
2023-11-29T02:18:03.096Z,92.40
2023-11-29T02:20:30.110Z,92.40
2023-11-29T02:23:04.551Z,92.40
2023-11-29T02:25:31.343Z,92.40
2023-11-29T02:28:01.107Z,92.30
2023-11-29T02:30:28.128Z,92.40
2023-11-29T02:32:55.082Z,92.40
2023-11-29T02:35:21.803Z,92.40
2023-11-29T02:37:48.519Z,92.40
2023-11-29T02:40:15.256Z,92.40
2023-11-29T02:42:41.949Z,92.30
2023-11-29T02:45:09.076Z,92.30
2023-11-29T02:47:35.873Z,92.30
2023-11-29T02:50:02.717Z,92.30
2023-11-29T02:52:29.444Z,92.40
2023-11-29T02:54:56.131Z,92.40
2023-11-29T02:57:22.873Z,92.40
2023-11-29T02:59:49.682Z,92.70
2023-11-29T03:02:16.618Z,92.40
2023-11-29T03:04:43.293Z,92.40
2023-11-29T03:07:10.205Z,92.40
2023-11-29T03:09:36.917Z,92.30
2023-11-29T03:12:03.778Z,92.30
2023-11-29T03:14:30.633Z,92.30
2023-11-29T03:16:57.355Z,92.30
2023-11-29T03:19:24.083Z,92.30
2023-11-29T03:21:50.773Z,92.30
2023-11-29T03:24:17.522Z,92.30
2023-11-29T03:26:44.438Z,92.30
2023-11-29T03:29:11.366Z,92.30
2023-11-29T03:31:38.197Z,92.30
2023-11-29T03:34:04.966Z,92.40
2023-11-29T03:36:31.636Z,92.30
2023-11-29T03:38:58.353Z,92.30
2023-11-29T03:41:25.118Z,92.30
2023-11-29T03:43:51.812Z,92.30
2023-11-29T03:46:18.683Z,92.30
2023-11-29T03:48:45.425Z,92.30
2023-11-29T03:51:13.585Z,92.30
2023-11-29T03:53:40.359Z,92.30
2023-11-29T03:56:07.446Z,92.20
2023-11-29T03:58:34.166Z,92.30
2023-11-29T04:01:03.476Z,92.60
2023-11-29T04:03:30.261Z,92.30
2023-11-29T04:05:57.001Z,92.20
2023-11-29T04:08:23.860Z,92.60
2023-11-29T04:10:50.609Z,92.30
2023-11-29T04:13:17.382Z,92.20
2023-11-29T04:15:44.108Z,92.20
2023-11-29T04:18:10.830Z,92.20
2023-11-29T04:20:37.689Z,92.20
2023-11-29T04:23:04.462Z,92.30
2023-11-29T04:25:31.151Z,92.60
2023-11-29T04:27:57.996Z,92.20
2023-11-29T04:30:25.771Z,92.20
2023-11-29T04:32:52.731Z,92.20
2023-11-29T04:35:19.498Z,92.20
2023-11-29T04:37:46.750Z,92.20
2023-11-29T04:40:13.526Z,92.20
2023-11-29T04:42:40.178Z,92.20
2023-11-29T04:45:07.311Z,92.20
2023-11-29T04:47:34.182Z,92.20
2023-11-29T04:50:00.902Z,92.20
2023-11-29T04:52:29.387Z,92.20
2023-11-29T04:54:56.044Z,92.20
2023-11-29T04:57:22.793Z,92.20
2023-11-29T04:59:49.603Z,92.20
2023-11-29T05:02:16.371Z,92.20
2023-11-29T05:04:43.106Z,92.20
2023-11-29T05:07:09.927Z,92.20
2023-11-29T05:09:37.141Z,92.20
2023-11-29T05:12:04.569Z,92.20
2023-11-29T05:14:31.260Z,92.20
2023-11-29T05:16:57.949Z,92.20
2023-11-29T05:19:24.648Z,92.20
2023-11-29T05:21:51.429Z,92.20
2023-11-29T05:24:18.394Z,92.20
2023-11-29T05:26:45.161Z,92.20
2023-11-29T05:29:11.878Z,92.20
2023-11-29T05:31:38.587Z,92.20
2023-11-29T05:34:07.212Z,92.20
2023-11-29T05:36:34.148Z,92.20
2023-11-29T05:39:04.060Z,92.20
2023-11-29T05:41:30.817Z,92.20
2023-11-29T05:43:57.722Z,92.10
2023-11-29T05:46:24.540Z,92.10
2023-11-29T05:48:51.370Z,92.10
2023-11-29T05:51:18.098Z,92.20
2023-11-29T05:53:44.843Z,92.10
2023-11-29T05:56:11.718Z,92.20
2023-11-29T05:58:43.972Z,92.20
2023-11-29T06:01:11.106Z,92.20
2023-11-29T06:03:38.003Z,92.20
2023-11-29T06:06:05.317Z,92.20
2023-11-29T06:08:31.998Z,92.20
2023-11-29T06:10:58.858Z,92.30
2023-11-29T06:13:25.510Z,92.30
2023-11-29T06:15:52.730Z,92.30
2023-11-29T06:18:20.270Z,92.20
2023-11-29T06:20:47.080Z,92.30
2023-11-29T06:23:13.966Z,92.30
2023-11-29T06:25:40.745Z,92.30
2023-11-29T06:28:07.392Z,92.40
2023-11-29T06:30:34.928Z,92.30
2023-11-29T06:33:04.299Z,92.40
2023-11-29T06:35:31.173Z,92.30
2023-11-29T06:38:02.469Z,92.40
2023-11-29T06:40:34.013Z,92.30
2023-11-29T06:43:03.521Z,92.30
2023-11-29T06:45:30.316Z,92.30
2023-11-29T06:47:57.259Z,92.30
2023-11-29T06:50:24.176Z,92.30
2023-11-29T06:52:50.850Z,92.20
2023-11-29T06:55:17.547Z,92.20
2023-11-29T06:57:47.259Z,92.20
2023-11-29T07:00:17.825Z,92.30
2023-11-29T07:02:45.799Z,92.20
2023-11-29T07:05:12.788Z,92.20
2023-11-29T07:07:39.577Z,92.20
2023-11-29T07:10:06.905Z,92.20
2023-11-29T07:12:33.704Z,92.20
2023-11-29T07:15:01.176Z,92.20
2023-11-29T07:17:28.630Z,92.20
2023-11-29T07:19:56.177Z,92.30
2023-11-29T07:22:25.491Z,92.20
2023-11-29T07:24:53.405Z,92.20
2023-11-29T07:27:29.270Z,92.60
2023-11-29T07:29:56.021Z,92.20
2023-11-29T07:32:24.058Z,92.20
2023-11-29T07:34:51.642Z,92.20
2023-11-29T07:37:21.904Z,92.10
2023-11-29T07:39:49.025Z,92.20
2023-11-29T07:42:16.059Z,92.20
2023-11-29T07:44:44.244Z,92.10
2023-11-29T07:47:11.735Z,92.10
2023-11-29T07:49:38.541Z,92.10
2023-11-29T07:52:05.523Z,92.10
2023-11-29T07:54:32.565Z,92.10
2023-11-29T07:56:59.430Z,92.10
2023-11-29T07:59:29.086Z,92.10
2023-11-29T08:01:55.914Z,92.10
2023-11-29T08:04:22.775Z,92.10
2023-11-29T08:06:49.535Z,92.20
2023-11-29T08:09:16.672Z,92.20
2023-11-29T08:11:45.842Z,92.10
2023-11-29T08:14:12.807Z,92.10
2023-11-29T08:16:39.519Z,92.10
2023-11-29T08:19:07.738Z,92.10
2023-11-29T08:21:34.624Z,92.10
2023-11-29T08:24:01.585Z,92.10
2023-11-29T08:26:28.455Z,92.10
2023-11-29T08:28:55.214Z,92.10
2023-11-29T08:31:21.999Z,92.00
2023-11-29T08:33:48.780Z,92.00
2023-11-29T08:36:16.820Z,92.00
2023-11-29T08:38:43.596Z,92.00
2023-11-29T08:41:10.339Z,92.00
2023-11-29T08:43:37.144Z,92.00
2023-11-29T08:46:05.132Z,92.00
2023-11-29T08:48:32.025Z,92.00
2023-11-29T08:50:58.914Z,92.00
2023-11-29T08:53:33.385Z,92.00
2023-11-29T08:56:20.505Z,92.00
2023-11-29T08:58:48.742Z,92.00
2023-11-29T09:01:20.046Z,92.00
2023-11-29T09:03:47.372Z,92.00
2023-11-29T09:06:14.368Z,92.00
2023-11-29T09:08:41.257Z,92.00
2023-11-29T09:11:08.229Z,91.90
2023-11-29T09:13:36.168Z,91.90
2023-11-29T09:16:07.786Z,91.80
2023-11-29T09:18:35.158Z,91.90
2023-11-29T09:21:01.993Z,91.90
2023-11-29T09:23:29.051Z,91.80
2023-11-29T09:25:55.719Z,91.80
2023-11-29T09:28:22.408Z,91.90
2023-11-29T09:30:49.176Z,91.80
2023-11-29T09:33:15.976Z,91.90
2023-11-29T09:35:44.169Z,91.80
2023-11-29T09:38:11.948Z,91.80
2023-11-29T09:40:38.836Z,91.80
2023-11-29T09:43:07.411Z,91.80
2023-11-29T09:45:34.354Z,91.80
2023-11-29T09:48:01.694Z,92.00
2023-11-29T09:50:28.628Z,91.80
2023-11-29T09:52:56.642Z,91.70
2023-11-29T09:55:23.316Z,91.70
2023-11-29T09:57:50.088Z,91.70
2023-11-29T10:00:17.933Z,91.70
2023-11-29T10:02:44.937Z,91.70
2023-11-29T10:05:12.261Z,91.80
2023-11-29T10:07:38.968Z,91.80
2023-11-29T10:10:07.194Z,91.70
2023-11-29T10:12:38.131Z,91.70
2023-11-29T10:15:10.017Z,91.70
2023-11-29T10:17:42.466Z,91.80
2023-11-29T10:20:09.724Z,91.80
2023-11-29T10:22:36.619Z,91.80
2023-11-29T10:25:19.191Z,91.80
2023-11-29T10:27:46.702Z,91.80
2023-11-29T10:30:14.707Z,91.80
2023-11-29T10:32:42.769Z,91.80
2023-11-29T10:35:14.598Z,91.80
2023-11-29T10:37:47.735Z,91.80
2023-11-29T10:40:17.730Z,91.80
2023-11-29T10:42:47.020Z,91.70
2023-11-29T10:45:18.924Z,91.70
2023-11-29T10:47:51.083Z,91.70
2023-11-29T10:50:21.467Z,91.70
2023-11-29T10:52:48.755Z,91.80
2023-11-29T10:55:15.707Z,91.80
2023-11-29T10:58:07.609Z,91.80
2023-11-29T11:00:35.261Z,91.90
2023-11-29T11:03:05.028Z,92.00
2023-11-29T11:05:32.003Z,92.20
2023-11-29T11:07:58.752Z,92.30
2023-11-29T11:10:27.596Z,92.40
2023-11-29T11:12:57.237Z,92.60
2023-11-29T11:15:29.299Z,92.80
2023-11-29T11:18:02.239Z,92.90
2023-11-29T11:20:42.655Z,93.10
2023-11-29T11:23:16.480Z,93.30
2023-11-29T11:25:43.129Z,93.40
2023-11-29T11:28:35.862Z,93.60
2023-11-29T11:31:07.723Z,93.70
2023-11-29T11:33:52.716Z,93.90
2023-11-29T11:36:21.091Z,94.00
2023-11-29T11:38:48.268Z,94.10
2023-11-29T11:41:15.585Z,94.20
2023-11-29T11:43:46.206Z,94.20
2023-11-29T11:46:12.919Z,94.30
2023-11-29T11:48:39.819Z,94.30
2023-11-29T11:51:07.557Z,94.30
2023-11-29T11:53:44.251Z,94.30
2023-11-29T11:56:19.166Z,94.30
2023-11-29T11:58:46.708Z,94.30
2023-11-29T12:01:13.460Z,94.30
2023-11-29T12:03:40.560Z,94.20
2023-11-29T12:06:08.103Z,94.20
2023-11-29T12:08:35.289Z,94.10
2023-11-29T12:11:02.299Z,94.10
2023-11-29T12:13:29.391Z,94.10
2023-11-29T12:15:56.322Z,94.10
2023-11-29T12:18:25.577Z,94.00
2023-11-29T12:20:53.096Z,94.00
2023-11-29T12:23:29.625Z,94.00
2023-11-29T12:25:57.448Z,93.90
2023-11-29T12:28:27.322Z,93.90
2023-11-29T12:30:57.467Z,93.80
2023-11-29T12:33:24.951Z,93.80
2023-11-29T12:35:51.924Z,93.70
2023-11-29T12:38:20.278Z,93.70
2023-11-29T12:40:47.198Z,93.70
2023-11-29T12:43:14.000Z,93.70
2023-11-29T12:45:40.872Z,93.70
2023-11-29T12:48:07.875Z,93.60
2023-11-29T12:50:34.653Z,93.50
2023-11-29T12:53:01.373Z,93.60
2023-11-29T12:55:28.057Z,93.50
2023-11-29T12:57:56.318Z,93.50
2023-11-29T13:00:23.173Z,93.40
2023-11-29T13:02:49.962Z,93.40
2023-11-29T13:05:16.710Z,93.30
2023-11-29T13:07:43.423Z,93.30
2023-11-29T13:10:10.376Z,93.20
2023-11-29T13:12:37.036Z,93.20
2023-11-29T13:15:04.982Z,93.10
2023-11-29T13:17:31.934Z,93.10
2023-11-29T13:19:59.996Z,93.00
2023-11-29T13:22:26.745Z,93.00
2023-11-29T13:24:54.702Z,92.90
2023-11-29T13:27:21.532Z,92.90
2023-11-29T13:29:48.263Z,92.80
2023-11-29T13:32:14.995Z,92.80
2023-11-29T13:34:42.021Z,92.70
2023-11-29T13:37:08.930Z,92.70
2023-11-29T13:39:35.854Z,92.60
2023-11-29T13:42:02.746Z,92.60
2023-11-29T13:44:29.873Z,92.60
2023-11-29T13:46:57.155Z,92.60
2023-11-29T13:49:24.399Z,92.50
2023-11-29T13:52:01.148Z,92.50
2023-11-29T13:54:35.784Z,92.40
2023-11-29T13:57:03.250Z,92.40
2023-11-29T13:59:30.238Z,92.40
2023-11-29T14:01:57.223Z,92.40
2023-11-29T14:04:24.584Z,92.40
2023-11-29T14:06:51.627Z,92.40
2023-11-29T14:09:18.310Z,92.30
2023-11-29T14:11:45.815Z,92.30
2023-11-29T14:14:19.482Z,92.30
2023-11-29T14:16:46.682Z,92.30
2023-11-29T14:19:14.319Z,92.30
2023-11-29T14:21:41.299Z,92.30
2023-11-29T14:24:08.125Z,92.30
2023-11-29T14:26:36.204Z,92.30
2023-11-29T14:29:06.178Z,92.30
2023-11-29T14:31:32.880Z,92.30
2023-11-29T14:33:59.736Z,92.30
2023-11-29T14:36:27.120Z,92.20
2023-11-29T14:38:53.841Z,92.30
2023-11-29T14:41:22.210Z,92.30
2023-11-29T14:43:50.790Z,92.30
2023-11-29T14:46:17.489Z,92.60
2023-11-29T14:48:44.394Z,92.20
2023-11-29T14:51:11.436Z,92.30
2023-11-29T14:53:38.260Z,92.30
2023-11-29T14:56:05.411Z,92.30
2023-11-29T14:58:32.142Z,92.30
2023-11-29T15:00:59.670Z,92.30
2023-11-29T15:03:28.365Z,92.30
2023-11-29T15:05:55.760Z,92.20
2023-11-29T15:08:22.440Z,92.20
2023-11-29T15:10:49.146Z,92.20
2023-11-29T15:13:15.891Z,92.20
2023-11-29T15:15:42.742Z,92.20
2023-11-29T15:18:09.549Z,92.30
2023-11-29T15:20:36.323Z,92.20
2023-11-29T15:23:03.805Z,92.20
2023-11-29T15:25:30.531Z,92.20
2023-11-29T15:27:57.201Z,92.20
2023-11-29T15:30:24.104Z,92.20
2023-11-29T15:32:53.300Z,92.20
2023-11-29T15:35:21.121Z,92.20
2023-11-29T15:37:48.388Z,92.20
2023-11-29T15:40:16.154Z,92.10
2023-11-29T15:42:43.042Z,92.10
2023-11-29T15:45:10.169Z,92.20
2023-11-29T15:47:39.952Z,92.10
2023-11-29T15:50:08.552Z,92.20
2023-11-29T15:52:36.837Z,92.10
2023-11-29T15:55:03.652Z,92.10
2023-11-29T15:57:30.404Z,92.40
2023-11-29T15:59:57.230Z,92.10
2023-11-29T16:02:24.154Z,92.10
2023-11-29T16:04:50.884Z,92.10
2023-11-29T16:07:17.555Z,92.10
2023-11-29T16:09:44.373Z,92.10
2023-11-29T16:12:11.631Z,92.00
2023-11-29T16:14:39.308Z,92.10
2023-11-29T16:17:06.070Z,92.10
2023-11-29T16:19:32.856Z,92.10
2023-11-29T16:21:59.508Z,92.10
2023-11-29T16:24:27.282Z,92.10
2023-11-29T16:26:54.369Z,92.00
2023-11-29T16:29:21.128Z,92.00
2023-11-29T16:31:48.017Z,91.90
2023-11-29T16:34:14.960Z,91.90
2023-11-29T16:36:41.837Z,91.90
2023-11-29T16:39:08.657Z,91.90
2023-11-29T16:41:38.085Z,91.90
2023-11-29T16:44:05.863Z,91.90
2023-11-29T16:46:34.362Z,91.90
2023-11-29T16:49:04.798Z,91.90
2023-11-29T16:51:31.552Z,91.90
2023-11-29T16:53:58.266Z,91.90
2023-11-29T16:56:25.359Z,91.90
2023-11-29T16:58:54.644Z,91.90
2023-11-29T17:01:26.841Z,91.80
2023-11-29T17:03:54.708Z,91.80
2023-11-29T17:06:22.076Z,91.90
2023-11-29T17:08:50.395Z,91.80
2023-11-29T17:11:17.078Z,91.80
2023-11-29T17:13:43.854Z,91.80
2023-11-29T17:16:10.688Z,91.80
2023-11-29T17:18:37.647Z,91.80
2023-11-29T17:21:04.766Z,91.80
2023-11-29T17:23:31.742Z,91.70
2023-11-29T17:25:58.552Z,91.70
2023-11-29T17:28:25.213Z,91.70
2023-11-29T17:30:54.881Z,91.70
2023-11-29T17:33:21.762Z,91.70
2023-11-29T17:35:48.517Z,91.70
2023-11-29T17:38:17.612Z,91.70
2023-11-29T17:40:45.237Z,91.80
2023-11-29T17:43:12.324Z,91.90
2023-11-29T17:45:39.119Z,92.30
2023-11-29T17:48:06.742Z,92.10
2023-11-29T17:50:33.624Z,92.30
2023-11-29T17:53:00.630Z,92.40
2023-11-29T17:55:27.390Z,92.50
2023-11-29T17:57:54.129Z,92.60
2023-11-29T18:00:23.016Z,92.70
2023-11-29T18:02:49.933Z,92.70
2023-11-29T18:05:16.912Z,92.80
2023-11-29T18:07:43.735Z,92.80
2023-11-29T18:10:10.943Z,92.80
2023-11-29T18:12:37.695Z,92.70
2023-11-29T18:15:04.980Z,92.70
2023-11-29T18:17:31.749Z,92.60
2023-11-29T18:19:59.616Z,92.50
2023-11-29T18:22:28.011Z,92.50
2023-11-29T18:24:54.981Z,92.40
2023-11-29T18:27:21.791Z,92.30
2023-11-29T18:29:48.621Z,92.20
2023-11-29T18:32:16.845Z,92.20
2023-11-29T18:34:45.303Z,92.10
2023-11-29T18:37:14.049Z,92.10
2023-11-29T18:39:42.114Z,92.10
2023-11-29T18:42:11.544Z,92.00
2023-11-29T18:44:43.479Z,92.00
2023-11-29T18:47:17.792Z,92.00
2023-11-29T18:49:47.462Z,91.90
2023-11-29T18:52:14.178Z,92.00
2023-11-29T18:54:40.826Z,91.90
2023-11-29T18:57:07.868Z,91.80
2023-11-29T18:59:36.304Z,91.80
2023-11-29T19:02:03.183Z,91.80
2023-11-29T19:04:30.185Z,91.70
2023-11-29T19:06:57.006Z,91.70
2023-11-29T19:09:23.719Z,91.70
2023-11-29T19:11:50.581Z,91.70
2023-11-29T19:14:17.505Z,91.70
2023-11-29T19:16:44.265Z,91.70
2023-11-29T19:19:12.196Z,91.70
2023-11-29T19:21:42.365Z,91.70
2023-11-29T19:24:09.137Z,91.70
2023-11-29T19:26:36.887Z,91.60
2023-11-29T19:29:04.606Z,91.60
2023-11-29T19:31:31.514Z,91.60
2023-11-29T19:33:58.483Z,91.60
2023-11-29T19:36:25.229Z,91.60
2023-11-29T19:38:51.930Z,91.60
2023-11-29T19:41:18.633Z,91.60
2023-11-29T19:43:45.558Z,91.60
2023-11-29T19:46:12.678Z,91.60
2023-11-29T19:48:39.819Z,91.60
2023-11-29T19:51:06.993Z,91.60
2023-11-29T19:53:33.769Z,91.60
2023-11-29T19:56:00.765Z,91.60
2023-11-29T19:58:32.078Z,91.50
2023-11-29T20:00:59.926Z,91.50
2023-11-29T20:03:27.016Z,91.50
2023-11-29T20:05:54.151Z,91.50
2023-11-29T20:08:21.144Z,91.50
2023-11-29T20:10:48.050Z,91.50
2023-11-29T20:13:16.019Z,91.50
2023-11-29T20:15:43.117Z,91.80
2023-11-29T20:18:10.061Z,91.40
2023-11-29T20:20:52.441Z,91.40
2023-11-29T20:23:24.880Z,91.50
2023-11-29T20:25:51.773Z,91.50
2023-11-29T20:28:18.571Z,91.40
2023-11-29T20:30:45.460Z,91.50
2023-11-29T20:33:12.573Z,91.50
2023-11-29T20:35:40.700Z,91.40
2023-11-29T20:38:07.945Z,91.40
2023-11-29T20:40:44.264Z,91.80
2023-11-29T20:43:15.101Z,91.50
2023-11-29T20:45:41.939Z,91.40
2023-11-29T20:48:08.984Z,91.60
2023-11-29T20:50:35.865Z,91.50
2023-11-29T20:53:10.369Z,91.40
2023-11-29T20:55:46.498Z,91.40
2023-11-29T20:58:13.228Z,91.70
2023-11-29T21:00:40.000Z,91.40
2023-11-29T21:03:07.005Z,91.40
2023-11-29T21:05:33.757Z,91.40
2023-11-29T21:08:00.875Z,91.40
2023-11-29T21:10:27.578Z,91.30
2023-11-29T21:12:58.680Z,91.40
2023-11-29T21:15:25.855Z,91.80
2023-11-29T21:17:53.872Z,91.60
2023-11-29T21:20:20.880Z,91.70
2023-11-29T21:22:48.401Z,91.70
2023-11-29T21:25:17.212Z,91.80
2023-11-29T21:27:43.896Z,91.90
2023-11-29T21:30:11.194Z,92.00
2023-11-29T21:32:37.979Z,92.00
2023-11-29T21:35:05.146Z,92.00
2023-11-29T21:37:31.892Z,92.10
2023-11-29T21:39:59.276Z,92.10
2023-11-29T21:42:26.024Z,92.40
2023-11-29T21:44:52.734Z,92.10
2023-11-29T21:47:19.472Z,92.10
2023-11-29T21:49:46.226Z,92.10
2023-11-29T21:52:12.903Z,92.10
2023-11-29T21:54:39.638Z,92.10
2023-11-29T21:57:06.414Z,92.10
2023-11-29T21:59:33.119Z,92.00
2023-11-29T22:01:59.954Z,92.00
2023-11-29T22:04:26.818Z,92.00
2023-11-29T22:06:56.276Z,92.00
2023-11-29T22:09:23.217Z,92.00
2023-11-29T22:11:50.094Z,92.00
2023-11-29T22:14:17.080Z,91.90
2023-11-29T22:16:43.814Z,91.90
2023-11-29T22:19:10.560Z,91.90
2023-11-29T22:21:37.278Z,91.90
2023-11-29T22:24:04.450Z,91.90
2023-11-29T22:26:47.292Z,91.90
2023-11-29T22:29:22.344Z,91.90
2023-11-29T22:31:50.014Z,91.90
2023-11-29T22:34:16.742Z,91.90
2023-11-29T22:36:43.620Z,91.90
2023-11-29T22:39:12.689Z,91.80
2023-11-29T22:41:39.465Z,91.80
2023-11-29T22:44:06.375Z,91.80
2023-11-29T22:46:33.425Z,91.80
2023-11-29T22:49:00.224Z,91.80
2023-11-29T22:51:28.727Z,91.80
2023-11-29T22:53:57.804Z,91.80
2023-11-29T22:56:24.550Z,91.80
2023-11-29T22:58:51.294Z,91.80
2023-11-29T23:01:18.376Z,91.80
2023-11-29T23:03:45.324Z,91.80
2023-11-29T23:06:12.691Z,91.80
2023-11-29T23:08:39.594Z,91.80
2023-11-29T23:11:07.064Z,91.80
2023-11-29T23:13:33.916Z,91.70
2023-11-29T23:16:00.634Z,91.70
2023-11-29T23:18:27.506Z,91.70
2023-11-29T23:20:54.917Z,91.70
2023-11-29T23:23:26.395Z,91.70
2023-11-29T23:25:53.832Z,91.70
2023-11-29T23:28:20.783Z,91.70
2023-11-29T23:30:49.153Z,91.70
2023-11-29T23:33:18.982Z,91.70
2023-11-29T23:35:45.894Z,91.60
2023-11-29T23:38:12.648Z,91.60
2023-11-29T23:40:39.777Z,91.60
2023-11-29T23:43:06.481Z,91.60
2023-11-29T23:45:35.777Z,91.60
2023-11-29T23:48:03.225Z,91.60
2023-11-29T23:50:30.070Z,91.60
2023-11-29T23:52:56.783Z,91.60
2023-11-29T23:55:23.601Z,91.60
2023-11-29T23:57:50.314Z,91.60
